Time;durP1;ratioP1;P1;durP2;ratioP2;P2;SDS_P1;SDS_P2;PMS_P1;PMS_P2;Temp;Humidity;BMP_temperature;BMP_pressure;BME280_temperature;BME280_humidity;BME280_pressure;Samples;Min_cycle;Max_cycle;Signal;HPM_P1;HPM_P2
2022/06/07 00:02:24;;;;;;;0.00;0.00;;;17.70;99.90;;;;;;5062142;28;20029;-72
2022/06/07 00:04:52;;;;;;;0.00;0.00;;;17.80;99.90;;;;;;5063497;28;20073;-72
2022/06/07 00:07:19;;;;;;;0.00;0.00;;;18.00;99.90;;;;;;5062132;28;20024;-73
2022/06/07 00:09:45;;;;;;;0.00;0.00;;;18.20;99.90;;;;;;5061909;28;20464;-73
2022/06/07 00:12:18;;;;;;;0.00;0.00;;;18.40;99.90;;;;;;5061962;28;20123;-74
2022/06/07 00:14:45;;;;;;;0.00;0.00;;;18.50;99.90;;;;;;5061605;28;20021;-73
2022/06/07 00:17:12;;;;;;;0.00;0.00;;;18.70;99.90;;;;;;5063718;28;20089;-72
2022/06/07 00:19:38;;;;;;;0.03;0.03;;;19.20;99.90;;;;;;5062691;28;20373;-73
2022/06/07 00:22:05;;;;;;;0.00;0.00;;;20.00;99.90;;;;;;5068956;28;20111;-73
2022/06/07 00:24:32;;;;;;;0.00;0.00;;;20.90;99.90;;;;;;5070349;28;20058;-72
2022/06/07 00:26:58;;;;;;;0.00;0.00;;;21.70;94.40;;;;;;5072701;28;20065;-73
2022/06/07 00:29:25;;;;;;;0.00;0.00;;;22.40;91.50;;;;;;5071496;28;20105;-72
2022/06/07 00:31:52;;;;;;;0.00;0.00;;;23.10;81.60;;;;;;5063429;28;20060;-73
2022/06/07 00:34:18;;;;;;;0.10;0.10;;;23.70;79.20;;;;;;5072553;28;20112;-73
2022/06/07 00:36:45;;;;;;;0.00;0.00;;;24.40;76.00;;;;;;5070448;28;20028;-73
2022/06/07 00:39:11;;;;;;;0.00;0.00;;;24.90;69.10;;;;;;5070353;28;20020;-73
2022/06/07 00:41:38;;;;;;;0.08;0.08;;;25.70;64.00;;;;;;5068920;28;20112;-73
2022/06/07 00:44:31;;;;;;;0.57;0.57;;;26.30;62.00;;;;;;5072654;28;20059;-73
2022/06/07 00:47:01;;;;;;;0.00;0.00;;;27.00;56.70;;;;;;5070295;28;20103;-73
2022/06/07 00:49:43;;;;;;;0.13;0.13;;;27.70;55.00;;;;;;5068067;28;20028;-73
2022/06/07 00:52:09;;;;;;;0.00;0.00;;;28.00;52.70;;;;;;5065598;28;20023;-73
2022/06/07 00:54:36;;;;;;;0.00;0.00;;;28.30;51.50;;;;;;5072874;28;20040;-73
2022/06/07 00:57:03;;;;;;;0.00;0.00;;;28.50;52.00;;;;;;5067857;28;20077;-73
2022/06/07 00:59:30;;;;;;;0.00;0.00;;;29.00;51.10;;;;;;5060464;28;20037;-73
2022/06/07 01:01:57;;;;;;;0.00;0.00;;;29.30;49.90;;;;;;5056640;28;20029;-73
2022/06/07 01:04:23;;;;;;;0.00;0.00;;;29.60;49.50;;;;;;5063312;28;20047;-72
2022/06/07 01:12:19;;;;;;;0.00;0.00;;;31.30;45.80;;;;;;5071507;28;20032;-71
2022/06/07 01:14:45;;;;;;;0.00;0.00;;;31.40;45.00;;;;;;5070294;28;20025;-71
2022/06/07 01:17:11;;;;;;;0.00;0.00;;;32.00;42.30;;;;;;5069757;28;20452;-73
2022/06/07 01:19:38;;;;;;;0.00;0.00;;;32.10;40.80;;;;;;5062313;28;20444;-75
2022/06/07 01:22:04;;;;;;;0.85;0.85;;;32.30;40.40;;;;;;5061758;28;20029;-73
2022/06/07 01:24:30;;;;;;;0.00;0.00;;;32.10;40.10;;;;;;5071422;28;20342;-72
2022/06/07 01:26:56;;;;;;;0.00;0.00;;;31.20;39.60;;;;;;5070040;28;20036;-71
2022/06/07 01:29:22;;;;;;;0.00;0.00;;;31.00;39.10;;;;;;5071857;28;20128;-71
2022/06/07 01:31:48;;;;;;;5.38;0.65;;;30.40;38.90;;;;;;5066774;28;20516;-73
2022/06/07 01:34:15;;;;;;;2.17;1.75;;;30.20;40.10;;;;;;5057990;28;20080;-73
2022/06/07 01:36:41;;;;;;;2.10;0.90;;;29.50;39.20;;;;;;5062344;28;20283;-73
2022/06/07 01:41:55;;;;;;;2.70;2.53;;;27.50;43.80;;;;;;5068917;28;20087;-72
2022/06/07 01:44:29;;;;;;;1.42;0.80;;;27.20;44.40;;;;;;5068821;28;20020;-72
2022/06/07 01:46:58;;;;;;;0.00;0.00;;;27.20;43.00;;;;;;5065911;28;20028;-71
2022/06/07 01:49:24;;;;;;;0.10;0.10;;;27.30;43.80;;;;;;5065369;28;20025;-72
2022/06/07 01:51:52;;;;;;;0.15;0.15;;;27.40;42.70;;;;;;5072940;28;20032;-72
2022/06/07 01:54:20;;;;;;;0.10;0.10;;;27.80;43.40;;;;;;5066633;28;20123;-73
2022/06/07 01:56:47;;;;;;;0.00;0.00;;;28.60;42.00;;;;;;5066600;28;20033;-73
2022/06/07 01:59:13;;;;;;;1.15;0.82;;;29.40;41.40;;;;;;5067258;28;20036;-74
2022/06/07 02:01:40;;;;;;;0.10;0.10;;;29.80;37.90;;;;;;5066697;28;20021;-74
2022/06/07 02:04:06;;;;;;;0.17;0.17;;;29.60;39.80;;;;;;5063694;28;20452;-72
2022/06/07 02:06:32;;;;;;;0.00;0.00;;;29.10;38.80;;;;;;5065224;28;20025;-74
2022/06/07 02:08:58;;;;;;;0.38;0.38;;;28.70;41.50;;;;;;5066404;28;20028;-72
2022/06/07 02:11:27;;;;;;;0.17;0.15;;;28.60;39.40;;;;;;5066954;28;20021;-73
2022/06/07 02:13:54;;;;;;;0.17;0.15;;;28.60;38.90;;;;;;5066749;28;20024;-72
2022/06/07 02:16:21;;;;;;;0.30;0.30;;;28.40;38.30;;;;;;5065213;28;20042;-74
2022/06/07 02:18:48;;;;;;;0.22;0.22;;;28.30;39.40;;;;;;5063527;28;20186;-74
2022/06/07 02:21:19;;;;;;;0.52;0.47;;;28.50;39.40;;;;;;5069101;28;20051;-72
2022/06/07 02:23:45;;;;;;;0.00;0.00;;;28.40;38.80;;;;;;5053153;28;20021;-74
2022/06/07 02:26:18;;;;;;;0.00;0.00;;;29.20;39.60;;;;;;5067828;28;20025;-71
2022/06/07 02:28:49;;;;;;;0.00;0.00;;;29.30;38.50;;;;;;5066099;28;20520;-73
2022/06/07 02:31:16;;;;;;;0.00;0.00;;;30.10;36.70;;;;;;5065340;28;20044;-72
2022/06/07 02:33:43;;;;;;;0.00;0.00;;;30.20;36.10;;;;;;5062112;28;20021;-73
2022/06/07 02:36:11;;;;;;;1.80;1.75;;;30.10;36.40;;;;;;5059437;28;20082;-74
2022/06/07 02:38:38;;;;;;;0.10;0.10;;;30.00;36.20;;;;;;5062804;28;20033;-72
2022/06/07 02:41:07;;;;;;;1.85;0.65;;;30.20;39.60;;;;;;5062246;28;20059;-72
2022/06/07 02:43:33;;;;;;;2.33;1.45;;;30.60;40.80;;;;;;5062842;28;20381;-74
2022/06/07 02:45:59;;;;;;;6.93;2.17;;;30.80;45.00;;;;;;5063027;28;20024;-74
2022/06/07 02:48:25;;;;;;;2.55;1.45;;;29.80;48.20;;;;;;5060361;28;20023;-74
2022/06/07 02:50:54;;;;;;;0.63;0.63;;;29.50;49.60;;;;;;5060274;28;20032;-73
2022/06/07 02:53:21;;;;;;;4.07;3.55;;;29.20;49.10;;;;;;5061718;28;20032;-74
2022/06/07 02:55:47;;;;;;;7.13;0.90;;;28.60;50.10;;;;;;5062320;28;20033;-74
2022/06/07 02:58:13;;;;;;;0.00;0.00;;;28.40;50.60;;;;;;5061042;28;20388;-74
2022/06/07 03:00:39;;;;;;;2.08;1.98;;;28.40;50.70;;;;;;5060191;28;20048;-74
2022/06/07 03:03:06;;;;;;;0.32;0.32;;;28.10;49.10;;;;;;5045115;28;20028;-73
2022/06/07 03:05:32;;;;;;;1.63;1.52;;;28.50;49.20;;;;;;5055082;28;20032;-76
2022/06/07 03:07:58;;;;;;;3.03;1.10;;;28.80;48.90;;;;;;5041566;28;20056;-75
2022/06/07 03:10:24;;;;;;;0.63;0.25;;;29.00;48.40;;;;;;5059604;28;20066;-74
2022/06/07 03:12:50;;;;;;;4.03;1.98;;;28.90;47.20;;;;;;5043698;28;20494;-73
2022/06/07 03:15:16;;;;;;;14.95;0.75;;;28.30;47.60;;;;;;5061934;28;20036;-73
2022/06/07 03:17:43;;;;;;;0.73;0.22;;;28.40;46.40;;;;;;5061473;28;20045;-72
2022/06/07 03:20:13;;;;;;;0.10;0.05;;;28.30;48.10;;;;;;5057242;28;20041;-74
2022/06/07 03:22:39;;;;;;;0.65;0.65;;;28.70;48.10;;;;;;5060885;28;20039;-74
2022/06/07 03:25:07;;;;;;;1.13;1.13;;;29.00;47.00;;;;;;5058877;28;20032;-76
2022/06/07 03:27:35;;;;;;;1.48;1.27;;;29.10;47.20;;;;;;5059251;28;20021;-73
2022/06/07 03:30:02;;;;;;;0.15;0.10;;;29.00;45.50;;;;;;5044552;28;20021;-74
2022/06/07 03:32:29;;;;;;;0.93;0.70;;;29.10;45.60;;;;;;5061023;28;20484;-73
2022/06/07 03:34:54;;;;;;;3.47;2.13;;;29.40;45.10;;;;;;5064229;28;20056;-73
2022/06/07 03:37:21;;;;;;;2.10;1.75;;;29.70;44.30;;;;;;5065770;28;20075;-73
2022/06/07 03:39:48;;;;;;;0.30;0.30;;;29.20;45.00;;;;;;5060400;28;20032;-73
2022/06/07 03:42:14;;;;;;;0.50;0.50;;;28.30;45.40;;;;;;5062029;28;20456;-74
2022/06/07 03:44:41;;;;;;;0.00;0.00;;;28.10;46.10;;;;;;5058902;28;20070;-74
2022/06/07 03:47:07;;;;;;;1.67;1.55;;;29.00;46.00;;;;;;5062141;28;20024;-73
2022/06/07 03:49:33;;;;;;;1.00;0.70;;;29.80;45.20;;;;;;5058570;28;20017;-74
2022/06/07 03:51:59;;;;;;;1.40;1.05;;;30.10;43.70;;;;;;5059229;28;20856;-73
2022/06/07 03:54:25;;;;;;;0.52;0.52;;;29.80;43.40;;;;;;5058874;28;20033;-74
2022/06/07 03:56:51;;;;;;;0.00;0.00;;;29.30;44.30;;;;;;5053832;28;20044;-73
2022/06/07 03:59:17;;;;;;;0.43;0.20;;;28.30;44.40;;;;;;5061259;28;20434;-73
2022/06/07 04:01:43;;;;;;;0.10;0.10;;;27.70;46.80;;;;;;5064659;28;20033;-74
2022/06/07 04:04:10;;;;;;;0.30;0.25;;;27.50;45.60;;;;;;5057226;28;20035;-73
2022/06/07 04:08:10;;;;;;;0.00;0.00;;;27.50;47.10;;;;;;5056775;28;20115;-72
2022/06/07 04:09:39;;;;;;;0.10;0.05;;;27.70;45.70;;;;;;5062896;28;20017;-73
2022/06/07 04:12:10;;;;;;;0.63;0.55;;;27.90;45.80;;;;;;5060118;28;20123;-74
2022/06/07 04:14:41;;;;;;;0.90;0.57;;;28.20;43.70;;;;;;5059376;28;20025;-74
2022/06/07 04:17:08;;;;;;;6.53;1.45;;;28.20;42.50;;;;;;5063001;28;20449;-74
2022/06/07 04:19:35;;;;;;;2.42;1.38;;;27.90;40.50;;;;;;5058966;28;20038;-74
2022/06/07 04:22:02;;;;;;;1.05;0.95;;;27.90;40.30;;;;;;5061512;28;20078;-76
2022/06/07 04:24:28;;;;;;;1.58;1.05;;;27.90;40.90;;;;;;5062840;28;20013;-74
2022/06/07 04:26:54;;;;;;;0.05;0.05;;;27.90;40.60;;;;;;5042045;28;20029;-74
2022/06/07 04:29:22;;;;;;;0.57;0.15;;;28.00;40.60;;;;;;5060193;28;20054;-75
2022/06/07 04:31:48;;;;;;;6.78;0.98;;;28.20;41.20;;;;;;5064547;28;20045;-75
2022/06/07 04:34:14;;;;;;;0.00;0.00;;;28.20;38.90;;;;;;5059667;28;20028;-75
2022/06/07 04:36:41;;;;;;;0.30;0.25;;;28.40;39.20;;;;;;5063609;28;20027;-74
2022/06/07 04:39:08;;;;;;;1.27;0.22;;;28.30;36.40;;;;;;5059037;28;20466;-75
2022/06/07 04:41:34;;;;;;;0.00;0.00;;;28.40;36.20;;;;;;5057828;28;20040;-73
2022/06/07 04:44:00;;;;;;;0.65;0.65;;;28.20;38.10;;;;;;5058380;28;20091;-74
2022/06/07 04:46:27;;;;;;;1.92;1.83;;;28.30;37.80;;;;;;5054554;28;20029;-75
2022/06/07 04:48:54;;;;;;;7.40;0.95;;;28.50;39.50;;;;;;5060116;28;20025;-74
2022/06/07 04:51:25;;;;;;;1.33;1.23;;;28.50;37.50;;;;;;5061529;28;20020;-74
2022/06/07 04:53:51;;;;;;;0.85;0.75;;;28.80;37.00;;;;;;5062650;28;20630;-74
2022/06/07 04:56:20;;;;;;;1.15;0.45;;;28.80;37.00;;;;;;5064012;28;20037;-74
2022/06/07 04:58:47;;;;;;;0.25;0.20;;;28.70;37.70;;;;;;5059266;28;20427;-75
2022/06/07 05:01:29;;;;;;;1.08;0.50;;;28.60;36.90;;;;;;5056653;28;20058;-74
2022/06/07 05:03:56;;;;;;;3.65;1.23;;;28.50;36.60;;;;;;5055656;28;20046;-73
2022/06/07 05:06:23;;;;;;;0.68;0.68;;;28.40;36.90;;;;;;5056942;28;20025;-74
2022/06/07 05:08:51;;;;;;;0.00;0.00;;;28.30;37.00;;;;;;5058211;28;20025;-75
2022/06/07 05:11:17;;;;;;;0.00;0.00;;;28.40;37.10;;;;;;5060118;28;20032;-74
2022/06/07 05:13:44;;;;;;;1.85;0.70;;;28.60;36.10;;;;;;5057465;28;20493;-75
2022/06/07 05:16:11;;;;;;;1.30;0.47;;;28.70;36.90;;;;;;5059411;28;20032;-75
2022/06/07 05:18:37;;;;;;;0.00;0.00;;;28.70;37.40;;;;;;5058465;28;20051;-73
2022/06/07 05:21:08;;;;;;;0.30;0.15;;;28.30;36.60;;;;;;5059899;28;20024;-75
2022/06/07 05:23:35;;;;;;;0.73;0.35;;;28.60;37.80;;;;;;5063565;28;20111;-75
2022/06/07 05:26:22;;;;;;;0.73;0.65;;;28.90;35.70;;;;;;5060200;28;20059;-74
2022/06/07 05:28:48;;;;;;;1.13;0.60;;;29.00;34.70;;;;;;5063235;28;20499;-74
2022/06/07 05:31:14;;;;;;;0.77;0.55;;;28.80;33.20;;;;;;5057888;28;20049;-74
2022/06/07 05:33:40;;;;;;;0.93;0.52;;;28.80;33.70;;;;;;5058693;28;20028;-76
2022/06/07 05:36:07;;;;;;;0.20;0.17;;;28.90;33.40;;;;;;5058072;28;20115;-74
2022/06/07 05:38:33;;;;;;;0.40;0.13;;;28.80;30.80;;;;;;5061290;28;20393;-74
2022/06/07 05:40:59;;;;;;;2.20;0.75;;;29.00;32.80;;;;;;5061403;28;20760;-75
2022/06/07 05:43:25;;;;;;;0.20;0.08;;;29.00;34.00;;;;;;5060582;28;20039;-75
2022/06/07 05:45:53;;;;;;;0.20;0.20;;;28.70;34.40;;;;;;5059320;28;20017;-75
2022/06/07 05:48:20;;;;;;;9.48;0.75;;;28.50;34.00;;;;;;5059517;28;20162;-74
2022/06/07 05:50:52;;;;;;;0.00;0.00;;;28.80;31.20;;;;;;5059008;28;20424;-73
2022/06/07 05:53:19;;;;;;;0.30;0.30;;;28.90;31.00;;;;;;5061836;28;20024;-74
2022/06/07 05:55:46;;;;;;;0.63;0.52;;;28.70;33.30;;;;;;5060981;28;20062;-74
2022/06/07 05:58:16;;;;;;;0.43;0.40;;;29.00;33.70;;;;;;5062399;28;20132;-74
2022/06/07 06:00:42;;;;;;;1.58;0.73;;;29.00;35.50;;;;;;5058737;28;20033;-75
2022/06/07 06:03:10;;;;;;;0.20;0.20;;;29.00;33.50;;;;;;5061314;28;20048;-75
2022/06/07 06:05:36;;;;;;;0.20;0.00;;;29.10;30.50;;;;;;5052976;28;20660;-74
2022/06/07 06:10:49;;;;;;;0.28;0.20;;;29.20;34.10;;;;;;5060229;28;20039;-75
2022/06/07 06:13:15;;;;;;;0.20;0.20;;;29.30;31.60;;;;;;5060814;28;20389;-76
2022/06/07 06:15:41;;;;;;;0.10;0.10;;;29.00;32.20;;;;;;5057269;28;20032;-73
2022/06/07 06:18:08;;;;;;;0.00;0.00;;;29.10;31.80;;;;;;5054967;28;20043;-73
2022/06/07 06:20:35;;;;;;;0.80;0.28;;;29.00;32.60;;;;;;5062935;28;20060;-73
2022/06/07 06:23:01;;;;;;;0.20;0.17;;;29.10;32.50;;;;;;5060382;28;20040;-75
2022/06/07 06:25:27;;;;;;;0.00;0.00;;;28.80;32.90;;;;;;5056358;28;20033;-76
2022/06/07 06:27:53;;;;;;;2.83;0.75;;;28.80;33.80;;;;;;5056003;28;20438;-76
2022/06/07 06:30:20;;;;;;;3.03;1.98;;;28.70;33.50;;;;;;5058284;28;20070;-74
2022/06/07 06:32:46;;;;;;;1.55;1.25;;;28.90;33.80;;;;;;5044143;28;20166;-74
2022/06/07 06:35:12;;;;;;;1.02;0.98;;;29.40;32.30;;;;;;5055693;28;20086;-74
2022/06/07 06:37:38;;;;;;;0.00;0.00;;;29.60;32.50;;;;;;5054083;28;20032;-75
2022/06/07 06:40:05;;;;;;;0.00;0.00;;;29.50;32.90;;;;;;5051607;28;20086;-75
2022/06/07 06:42:31;;;;;;;0.10;0.10;;;29.10;32.70;;;;;;5057822;28;20144;-75
2022/06/07 06:44:58;;;;;;;0.00;0.00;;;29.20;32.20;;;;;;5063132;28;20033;-73
2022/06/07 06:47:24;;;;;;;0.55;0.40;;;29.40;32.40;;;;;;5062155;28;20035;-75
2022/06/07 06:49:50;;;;;;;1.98;0.77;;;29.80;31.80;;;;;;5062894;28;20025;-74
2022/06/07 06:52:16;;;;;;;2.60;1.33;;;29.60;32.20;;;;;;5057688;28;20035;-75
2022/06/07 06:54:42;;;;;;;2.17;0.28;;;29.50;31.60;;;;;;5066653;28;20243;-75
2022/06/07 06:57:08;;;;;;;0.00;0.00;;;29.50;31.80;;;;;;5066770;28;20025;-75
2022/06/07 06:59:34;;;;;;;1.20;0.45;;;29.80;32.00;;;;;;5069908;28;20024;-75
2022/06/07 07:02:00;;;;;;;0.10;0.08;;;29.80;31.40;;;;;;5069938;28;20061;-75
2022/06/07 07:04:26;;;;;;;4.63;0.77;;;29.70;31.10;;;;;;5063888;28;20363;-74
2022/06/07 07:06:53;;;;;;;0.00;0.00;;;29.90;31.90;;;;;;5065163;28;20028;-75
2022/06/07 07:09:24;;;;;;;1.58;1.48;;;30.00;31.70;;;;;;5064609;28;20024;-74
2022/06/07 07:11:53;;;;;;;0.20;0.05;;;30.20;31.40;;;;;;5063932;28;20035;-73
2022/06/07 07:14:19;;;;;;;0.00;0.00;;;30.20;31.10;;;;;;5062039;28;20374;-75
2022/06/07 07:16:50;;;;;;;0.25;0.25;;;29.90;31.90;;;;;;5061612;28;20025;-75
2022/06/07 07:19:16;;;;;;;0.00;0.00;;;30.00;31.90;;;;;;5059785;28;20299;-74
2022/06/07 07:21:46;;;;;;;0.00;0.00;;;29.70;31.80;;;;;;5062277;28;20064;-74
2022/06/07 07:24:16;;;;;;;3.88;3.47;;;29.60;31.60;;;;;;5060751;28;20135;-74
2022/06/07 07:26:44;;;;;;;0.57;0.57;;;29.80;33.10;;;;;;5063138;28;20020;-75
2022/06/07 07:29:12;;;;;;;0.00;0.00;;;30.30;31.00;;;;;;5065454;28;20099;-75
2022/06/07 07:31:38;;;;;;;0.32;0.25;;;30.40;30.70;;;;;;5065287;28;20029;-75
2022/06/07 07:34:09;;;;;;;7.80;7.30;;;30.40;30.10;;;;;;5066526;28;20041;-75
2022/06/07 07:36:38;;;;;;;0.13;0.13;;;29.90;31.60;;;;;;5066672;28;20029;-77
2022/06/07 07:39:04;;;;;;;0.10;0.10;;;30.10;30.80;;;;;;5067167;28;20394;-76
2022/06/07 07:41:33;;;;;;;0.20;0.00;;;30.20;30.90;;;;;;5063926;28;20028;-75
2022/06/07 07:44:01;;;;;;;0.28;0.13;;;30.20;31.10;;;;;;5061335;28;20062;-74
2022/06/07 07:46:31;;;;;;;1.45;0.20;;;30.20;30.90;;;;;;5062710;28;20021;-75
2022/06/07 07:48:57;;;;;;;1.55;0.63;;;30.30;32.20;;;;;;5061296;28;20032;-75
2022/06/07 07:51:27;;;;;;;0.00;0.00;;;30.10;31.10;;;;;;5065871;28;20027;-75
2022/06/07 07:53:55;;;;;;;0.10;0.10;;;30.00;30.70;;;;;;5061843;28;20040;-75
2022/06/07 07:56:22;;;;;;;0.00;0.00;;;30.10;31.20;;;;;;5064676;28;20542;-75
2022/06/07 07:58:50;;;;;;;0.00;0.00;;;30.00;30.00;;;;;;5064283;28;20033;-75
2022/06/07 08:01:22;;;;;;;0.00;0.00;;;30.20;29.50;;;;;;5061693;28;20021;-76
2022/06/07 08:03:48;;;;;;;0.45;0.40;;;30.00;29.80;;;;;;5061179;28;20036;-75
2022/06/07 08:06:17;;;;;;;0.00;0.00;;;30.40;29.20;;;;;;5066156;28;20376;-76
2022/06/07 08:08:44;;;;;;;0.00;0.00;;;30.20;29.90;;;;;;5062934;28;20127;-76
2022/06/07 08:11:11;;;;;;;0.00;0.00;;;30.30;29.70;;;;;;5064194;28;20040;-75
2022/06/07 08:13:37;;;;;;;0.55;0.55;;;30.40;30.70;;;;;;5062318;28;20029;-75
2022/06/07 08:16:05;;;;;;;1.13;0.28;;;30.40;29.60;;;;;;5062702;28;20029;-74
2022/06/07 08:18:31;;;;;;;0.00;0.00;;;30.70;29.40;;;;;;5063546;28;20540;-75
2022/06/07 08:21:02;;;;;;;0.00;0.00;;;30.80;29.20;;;;;;5064907;28;20092;-75
2022/06/07 08:23:29;;;;;;;0.00;0.00;;;30.80;29.80;;;;;;5062756;28;20025;-76
2022/06/07 08:26:00;;;;;;;0.00;0.00;;;31.10;29.30;;;;;;5065351;28;20070;-75
2022/06/07 08:28:31;;;;;;;1.25;1.15;;;31.10;29.00;;;;;;5067249;28;20021;-78
2022/06/07 08:30:58;;;;;;;0.80;0.47;;;30.80;28.90;;;;;;5058966;28;20759;-75
2022/06/07 08:38:58;;;;;;;0.10;0.10;;;30.90;29.20;;;;;;5056930;28;20044;-76
2022/06/07 08:41:46;;;;;;;1.85;1.45;;;30.70;29.00;;;;;;5061958;28;20038;-73
2022/06/07 08:44:39;;;;;;;0.70;0.28;;;30.70;29.40;;;;;;5065683;28;20029;-74
2022/06/07 08:47:18;;;;;;;0.00;0.00;;;30.80;29.00;;;;;;5045789;28;20041;-74
2022/06/07 08:49:44;;;;;;;0.32;0.32;;;30.70;29.10;;;;;;5061708;28;20036;-74
2022/06/07 08:52:15;;;;;;;0.00;0.00;;;31.00;28.80;;;;;;5063748;28;20033;-75
2022/06/07 08:54:42;;;;;;;0.00;0.00;;;31.20;29.40;;;;;;5062013;28;20028;-75
2022/06/07 08:57:33;;;;;;;0.45;0.43;;;31.40;29.30;;;;;;5064644;28;20055;-74
2022/06/07 09:00:21;;;;;;;0.00;0.00;;;31.20;28.30;;;;;;5046401;28;20408;-75
2022/06/07 09:02:50;;;;;;;0.00;0.00;;;31.20;29.00;;;;;;5061667;28;20079;-75
2022/06/07 09:05:17;;;;;;;0.20;0.20;;;31.40;28.90;;;;;;5066652;28;20025;-75
2022/06/07 09:07:43;;;;;;;0.00;0.00;;;30.90;29.50;;;;;;5063775;28;20036;-74
2022/06/07 09:13:19;;;;;;;10.80;0.88;;;30.90;29.20;;;;;;5061851;28;20028;-75
2022/06/07 09:15:49;;;;;;;0.98;0.80;;;31.00;29.80;;;;;;5062575;28;20026;-76
2022/06/07 09:18:18;;;;;;;0.22;0.22;;;31.00;29.20;;;;;;5062373;28;20029;-76
2022/06/07 09:20:51;;;;;;;3.08;0.43;;;31.00;29.00;;;;;;5058456;28;20123;-74
2022/06/07 09:23:24;;;;;;;1.85;0.77;;;31.00;29.20;;;;;;5063682;28;20478;-74
2022/06/07 09:25:53;;;;;;;0.10;0.05;;;31.00;29.60;;;;;;5061105;28;20032;-75
2022/06/07 09:28:27;;;;;;;7.88;5.70;;;30.70;30.10;;;;;;5065825;28;20021;-75
2022/06/07 09:31:15;;;;;;;0.88;0.77;;;31.00;29.50;;;;;;5046088;28;20185;-76
2022/06/07 09:34:06;;;;;;;0.43;0.43;;;31.00;29.50;;;;;;5064463;28;20059;-76
2022/06/07 09:36:43;;;;;;;1.45;0.45;;;31.20;31.00;;;;;;5050316;28;20060;-75
2022/06/07 09:39:24;;;;;;;2.67;0.98;;;31.40;29.90;;;;;;5063724;28;20024;-74
2022/06/07 09:42:00;;;;;;;0.20;0.10;;;31.30;29.00;;;;;;5063528;28;20214;-75
2022/06/07 09:44:31;;;;;;;0.38;0.10;;;31.10;29.10;;;;;;5064943;28;20020;-75
2022/06/07 09:47:05;;;;;;;0.90;0.90;;;30.90;29.40;;;;;;5062411;28;20013;-75
2022/06/07 09:49:37;;;;;;;1.55;1.08;;;30.90;29.60;;;;;;5066156;28;20023;-75
2022/06/07 09:52:10;;;;;;;0.00;0.00;;;31.20;29.10;;;;;;5063754;28;20606;-76
2022/06/07 09:54:41;;;;;;;0.98;0.75;;;31.20;29.30;;;;;;5061882;28;20437;-75
2022/06/07 09:57:27;;;;;;;1.55;1.45;;;31.20;29.00;;;;;;5063536;28;20489;-73
2022/06/07 10:00:02;;;;;;;0.00;0.00;;;31.40;29.20;;;;;;5056522;28;20115;-74
2022/06/07 10:02:46;;;;;;;0.65;0.65;;;31.70;28.40;;;;;;5062841;28;20032;-75
2022/06/07 10:05:18;;;;;;;0.00;0.00;;;31.70;28.80;;;;;;5064622;28;20116;-75
2022/06/07 10:08:07;;;;;;;0.00;0.00;;;31.70;29.30;;;;;;5062498;28;20040;-75
2022/06/07 10:10:54;;;;;;;0.00;0.00;;;31.50;28.80;;;;;;5046199;28;20041;-75
2022/06/07 10:13:47;;;;;;;1.08;0.82;;;31.50;28.60;;;;;;5065049;28;20400;-74
2022/06/07 10:16:22;;;;;;;1.02;0.60;;;31.40;28.90;;;;;;5062310;28;20082;-75
2022/06/07 10:19:01;;;;;;;0.63;0.50;;;31.00;29.20;;;;;;5061080;28;20115;-74
2022/06/07 10:22:24;;;;;;;0.32;0.32;;;30.90;28.70;;;;;;5042977;28;20404;-75
2022/06/07 10:25:15;;;;;;;1.30;1.05;;;30.90;29.70;;;;;;4980552;28;20042;-75
2022/06/07 10:27:57;;;;;;;0.88;0.75;;;30.80;28.90;;;;;;4985338;28;20505;-75
2022/06/07 10:30:38;;;;;;;0.00;0.00;;;30.70;29.10;;;;;;5052689;28;20053;-74
2022/06/07 10:33:38;;;;;;;0.15;0.15;;;30.50;29.20;;;;;;5068876;28;20021;-74
2022/06/07 10:36:43;;;;;;;1.27;0.63;;;30.80;28.90;;;;;;5067271;28;20021;-75
2022/06/07 10:39:21;;;;;;;1.80;1.13;;;30.70;28.40;;;;;;5059219;28;20044;-74
2022/06/07 10:42:05;;;;;;;1.17;1.05;;;30.70;28.20;;;;;;5068579;28;20028;-74
2022/06/07 10:44:43;;;;;;;4.40;0.95;;;30.60;27.90;;;;;;5067116;28;20032;-75
2022/06/07 10:47:21;;;;;;;0.28;0.22;;;30.50;28.30;;;;;;5065033;28;20048;-75
2022/06/07 10:50:13;;;;;;;0.35;0.32;;;30.50;27.90;;;;;;5066943;28;20086;-76
2022/06/07 10:52:59;;;;;;;0.10;0.10;;;30.60;28.10;;;;;;5069180;28;20033;-75
2022/06/07 10:55:44;;;;;;;0.22;0.22;;;30.70;28.20;;;;;;5065041;28;20043;-74
2022/06/07 10:58:39;;;;;;;0.00;0.00;;;30.90;28.60;;;;;;5067658;28;20043;-74
2022/06/07 11:01:19;;;;;;;0.10;0.10;;;30.60;27.90;;;;;;5043906;28;20043;-75
2022/06/07 11:09:19;;;;;;;14.60;5.93;;;30.50;29.10;;;;;;5067169;28;20071;-76
2022/06/07 11:09:55;;;;;;;1.08;0.75;;;30.60;27.20;;;;;;5060782;28;20040;-76
2022/06/07 11:12:42;;;;;;;0.85;0.85;;;30.60;27.10;;;;;;5062202;28;20070;-74
2022/06/07 11:15:26;;;;;;;1.10;0.88;;;30.60;27.10;;;;;;5068039;28;20116;-76
2022/06/07 11:18:03;;;;;;;0.00;0.00;;;30.70;27.30;;;;;;5064894;28;20540;-75
2022/06/07 11:20:31;;;;;;;0.00;0.00;;;30.50;27.50;;;;;;5059803;28;20032;-74
2022/06/07 11:23:36;;;;;;;0.10;0.10;;;30.70;27.10;;;;;;5066372;28;20060;-74
2022/06/07 11:26:14;;;;;;;0.00;0.00;;;30.80;27.00;;;;;;5063065;28;20023;-75
2022/06/07 11:28:40;;;;;;;0.05;0.05;;;30.50;27.60;;;;;;5069302;28;20631;-75
2022/06/07 11:31:35;;;;;;;0.00;0.00;;;30.30;27.60;;;;;;5066144;28;20076;-75
2022/06/07 11:34:22;;;;;;;27.77;26.10;;;30.40;27.20;;;;;;5029318;28;20131;-75
2022/06/07 11:37:02;;;;;;;0.08;0.08;;;30.40;27.40;;;;;;5064640;28;20086;-74
2022/06/07 11:39:40;;;;;;;0.00;0.00;;;30.60;27.90;;;;;;5046532;28;20032;-75
2022/06/07 11:42:12;;;;;;;2.50;1.38;;;30.40;27.90;;;;;;5068200;28;20099;-75
2022/06/07 11:45:05;;;;;;;0.00;0.00;;;30.50;27.40;;;;;;5069177;28;20059;-75
2022/06/07 11:47:43;;;;;;;0.00;0.00;;;30.40;27.90;;;;;;5066785;28;20025;-75
2022/06/07 11:50:39;;;;;;;1.63;1.27;;;30.30;27.80;;;;;;5065453;28;20381;-75
2022/06/07 11:53:29;;;;;;;1.40;1.33;;;30.40;28.10;;;;;;5060882;28;20033;-76
2022/06/07 11:56:30;;;;;;;0.00;0.00;;;30.30;27.50;;;;;;5057739;28;20636;-76
2022/06/07 11:59:01;;;;;;;0.10;0.10;;;30.30;27.40;;;;;;5052157;28;20134;-75
2022/06/07 12:01:35;;;;;;;0.00;0.00;;;30.20;28.20;;;;;;5063828;28;20036;-75
2022/06/07 12:04:32;;;;;;;0.63;0.63;;;30.30;28.10;;;;;;5044911;28;20056;-75
2022/06/07 12:07:20;;;;;;;0.00;0.00;;;30.30;28.00;;;;;;5031553;28;20044;-75
2022/06/07 12:09:55;;;;;;;1.10;0.98;;;30.30;27.40;;;;;;5065669;28;20052;-74
2022/06/07 12:12:28;;;;;;;0.17;0.10;;;30.20;27.40;;;;;;5063719;28;20052;-76
2022/06/07 12:15:04;;;;;;;1.83;1.73;;;30.40;28.20;;;;;;5059028;28;20028;-77
2022/06/07 12:17:30;;;;;;;0.00;0.00;;;30.30;27.40;;;;;;5059282;28;20066;-74
2022/06/07 12:19:58;;;;;;;0.00;0.00;;;30.40;27.50;;;;;;5060993;28;20424;-74
2022/06/07 12:22:28;;;;;;;0.00;0.00;;;30.20;27.50;;;;;;5058257;28;20025;-75
2022/06/07 12:25:00;;;;;;;0.00;0.00;;;30.10;27.80;;;;;;5064223;28;20073;-74
2022/06/07 12:27:35;;;;;;;0.00;0.00;;;30.00;28.30;;;;;;5063113;28;20052;-75
2022/06/07 12:30:30;;;;;;;0.00;0.00;;;29.90;27.80;;;;;;5065952;28;20501;-75
2022/06/07 12:33:12;;;;;;;0.03;0.03;;;30.10;27.90;;;;;;5062560;28;21082;-74
2022/06/07 12:36:01;;;;;;;0.00;0.00;;;30.10;27.70;;;;;;5063558;28;20033;-75
2022/06/07 12:38:30;;;;;;;0.00;0.00;;;30.20;28.30;;;;;;5064010;28;20055;-74
2022/06/07 12:41:07;;;;;;;0.00;0.00;;;30.10;28.10;;;;;;5060369;28;20464;-75
2022/06/07 12:43:43;;;;;;;0.00;0.00;;;30.00;28.40;;;;;;5065166;28;20036;-74
2022/06/07 12:46:27;;;;;;;0.00;0.00;;;29.90;28.50;;;;;;5061192;28;20024;-76
2022/06/07 12:48:55;;;;;;;0.00;0.00;;;29.90;28.50;;;;;;5061151;28;20020;-74
2022/06/07 12:51:34;;;;;;;0.00;0.00;;;29.90;28.80;;;;;;5064654;28;20112;-75
2022/06/07 12:54:14;;;;;;;0.00;0.00;;;29.90;28.80;;;;;;5060304;28;20032;-75
2022/06/07 12:56:42;;;;;;;0.00;0.00;;;29.90;29.20;;;;;;5055620;28;20045;-75
2022/06/07 12:59:23;;;;;;;0.00;0.00;;;29.90;29.70;;;;;;5064441;28;20013;-75
2022/06/07 13:01:51;;;;;;;0.00;0.00;;;29.80;29.60;;;;;;5066518;28;20134;-73
2022/06/07 13:04:44;;;;;;;0.05;0.05;;;29.80;29.50;;;;;;5070106;28;20469;-74
2022/06/07 13:07:29;;;;;;;0.00;0.00;;;29.70;29.50;;;;;;5065377;28;20032;-74
2022/06/07 13:10:04;;;;;;;0.00;0.00;;;29.50;29.40;;;;;;5066325;28;20021;-75
2022/06/07 13:12:42;;;;;;;0.00;0.00;;;29.50;29.70;;;;;;5063286;28;20155;-75
2022/06/07 13:15:29;;;;;;;0.00;0.00;;;29.70;28.80;;;;;;5058684;28;20495;-75
2022/06/07 13:18:06;;;;;;;0.10;0.00;;;29.70;30.50;;;;;;5063150;28;20046;-74
2022/06/07 13:20:46;;;;;;;0.10;0.05;;;29.80;30.70;;;;;;5061320;28;20021;-73
2022/06/07 13:23:32;;;;;;;0.20;0.17;;;29.80;31.00;;;;;;5068224;28;20024;-73
2022/06/07 13:26:23;;;;;;;0.05;0.05;;;29.80;31.40;;;;;;5063705;28;20107;-74
2022/06/07 13:29:11;;;;;;;2.17;0.47;;;29.90;32.00;;;;;;5050719;28;20409;-73
2022/06/07 13:31:49;;;;;;;0.30;0.30;;;29.90;31.60;;;;;;5060213;28;20489;-73
2022/06/07 13:34:30;;;;;;;1.75;0.75;;;29.80;31.40;;;;;;5034075;28;20501;-73